Time;durP1;ratioP1;P1;durP2;ratioP2;P2;SDS_P1;SDS_P2;PMS_P1;PMS_P2;Temp;Humidity;BMP_temperature;BMP_pressure;BME280_temperature;BME280_humidity;BME280_pressure;Samples;Min_cycle;Max_cycle;Signal;HPM_P1;HPM_P2
2023/04/24 00:00:14;;;;;;;0.55;0.55;;;12.60;99.90;;;;;;4399776;32;20435;-71
2023/04/24 00:02:40;;;;;;;0.50;0.50;;;12.60;99.90;;;;;;4403624;32;20070;-70
2023/04/24 00:05:07;;;;;;;0.40;0.40;;;12.60;99.90;;;;;;4403389;32;20102;-69
2023/04/24 00:07:33;;;;;;;0.50;0.50;;;12.50;99.90;;;;;;4399332;32;20105;-69
2023/04/24 00:09:59;;;;;;;0.32;0.32;;;12.40;99.90;;;;;;4402237;32;20145;-69
2023/04/24 00:12:26;;;;;;;0.60;0.60;;;12.40;99.90;;;;;;4399959;32;20443;-71
2023/04/24 00:14:52;;;;;;;0.50;0.50;;;12.40;99.90;;;;;;4400980;32;20144;-70
2023/04/24 00:17:21;;;;;;;2.65;1.27;;;12.30;99.90;;;;;;4401513;32;20101;-69
2023/04/24 00:19:47;;;;;;;0.70;0.60;;;12.30;99.90;;;;;;4400688;32;20542;-71
2023/04/24 00:22:14;;;;;;;0.40;0.40;;;12.20;99.90;;;;;;4399369;32;20105;-70
2023/04/24 00:24:40;;;;;;;0.50;0.50;;;12.20;99.90;;;;;;4386255;32;20093;-69
2023/04/24 00:27:06;;;;;;;0.70;0.45;;;12.30;99.90;;;;;;4399602;32;20073;-69
2023/04/24 00:29:31;;;;;;;0.68;0.68;;;12.20;99.90;;;;;;4406896;32;20078;-70
2023/04/24 00:31:57;;;;;;;0.55;0.50;;;12.20;99.90;;;;;;4410480;32;20086;-69
2023/04/24 00:34:23;;;;;;;0.30;0.30;;;12.20;99.90;;;;;;4412756;32;20116;-69
2023/04/24 00:36:51;;;;;;;0.45;0.45;;;12.20;99.90;;;;;;4409098;32;20173;-69
2023/04/24 00:39:18;;;;;;;0.68;0.40;;;12.30;99.90;;;;;;4409978;32;20062;-70
2023/04/24 00:41:43;;;;;;;0.50;0.50;;;12.30;99.90;;;;;;4410215;32;20523;-70
2023/04/24 00:44:09;;;;;;;0.40;0.40;;;12.30;99.90;;;;;;4410078;32;20058;-71
2023/04/24 00:46:35;;;;;;;0.40;0.40;;;12.30;99.90;;;;;;4410289;32;20065;-69
2023/04/24 00:49:02;;;;;;;0.40;0.40;;;12.30;99.90;;;;;;4409776;32;20082;-69
2023/04/24 00:51:27;;;;;;;1.08;0.73;;;12.30;99.90;;;;;;4409053;32;20093;-69
2023/04/24 00:53:53;;;;;;;0.50;0.50;;;12.30;99.90;;;;;;4409815;32;20073;-70
2023/04/24 00:56:19;;;;;;;1.37;0.70;;;12.30;99.90;;;;;;4410176;32;20575;-69
2023/04/24 00:58:44;;;;;;;0.55;0.55;;;12.30;99.90;;;;;;4409627;32;20082;-71
2023/04/24 01:01:11;;;;;;;0.50;0.50;;;12.20;99.90;;;;;;4408114;32;20066;-70
2023/04/24 01:03:37;;;;;;;0.60;0.55;;;12.20;99.90;;;;;;4408250;32;20167;-70
2023/04/24 01:06:04;;;;;;;0.60;0.60;;;12.20;99.90;;;;;;4408943;32;20077;-70
2023/04/24 01:08:30;;;;;;;0.55;0.55;;;12.30;99.90;;;;;;4409681;32;20082;-69
2023/04/24 01:10:57;;;;;;;1.02;0.82;;;12.30;99.90;;;;;;4408613;32;20070;-70
2023/04/24 01:13:22;;;;;;;0.47;0.47;;;12.20;99.90;;;;;;4409889;32;21191;-70
2023/04/24 01:15:48;;;;;;;0.50;0.50;;;12.20;99.90;;;;;;4407793;32;20116;-72
2023/04/24 01:18:14;;;;;;;0.80;0.77;;;12.10;99.90;;;;;;4409148;32;20082;-70
2023/04/24 01:20:41;;;;;;;0.70;0.70;;;12.10;99.90;;;;;;4409547;32;20093;-69
2023/04/24 01:23:07;;;;;;;0.25;0.25;;;12.10;99.90;;;;;;4409246;32;20083;-70
2023/04/24 01:25:34;;;;;;;1.67;0.82;;;12.10;99.90;;;;;;4408234;32;20081;-70
2023/04/24 01:28:00;;;;;;;0.40;0.40;;;12.20;99.90;;;;;;4409336;32;20136;-70
2023/04/24 01:30:27;;;;;;;0.35;0.35;;;12.10;99.90;;;;;;4407398;32;20430;-69
2023/04/24 01:32:54;;;;;;;0.50;0.50;;;12.20;99.90;;;;;;4408703;32;20113;-68
2023/04/24 01:35:20;;;;;;;0.50;0.50;;;12.20;99.90;;;;;;4408777;32;20564;-70
2023/04/24 01:37:46;;;;;;;0.40;0.40;;;12.10;99.90;;;;;;4409036;32;20140;-69
2023/04/24 01:40:11;;;;;;;8.57;1.45;;;12.10;99.90;;;;;;4407282;32;21692;-69
2023/04/24 01:42:40;;;;;;;0.95;0.50;;;12.10;99.90;;;;;;4407068;32;20089;-73
2023/04/24 01:45:06;;;;;;;0.40;0.40;;;12.10;99.90;;;;;;4407551;32;20184;-70
2023/04/24 01:47:32;;;;;;;0.45;0.45;;;12.10;99.90;;;;;;4407334;32;20107;-71
2023/04/24 01:49:58;;;;;;;5.37;2.35;;;12.10;99.90;;;;;;4407178;32;20058;-71
2023/04/24 01:52:23;;;;;;;0.57;0.45;;;12.00;99.90;;;;;;4407591;32;20089;-69
2023/04/24 01:54:49;;;;;;;0.40;0.40;;;12.10;99.90;;;;;;4407847;32;20101;-70
2023/04/24 01:57:16;;;;;;;0.65;0.65;;;12.10;99.90;;;;;;4407254;32;20065;-69
2023/04/24 01:59:41;;;;;;;0.93;0.60;;;12.10;99.90;;;;;;4407696;32;20377;-69
2023/04/24 02:02:06;;;;;;;0.57;0.43;;;11.90;99.90;;;;;;4407009;32;20085;-69
2023/04/24 02:04:32;;;;;;;0.30;0.30;;;11.90;99.90;;;;;;4411084;32;20158;-71
2023/04/24 02:06:57;;;;;;;0.50;0.50;;;11.80;99.90;;;;;;4409707;32;20168;-69
2023/04/24 02:09:23;;;;;;;0.68;0.68;;;11.90;99.90;;;;;;4410164;32;20507;-69
2023/04/24 02:11:48;;;;;;;2.08;0.77;;;11.90;99.90;;;;;;4409307;32;20069;-70
2023/04/24 02:14:14;;;;;;;0.60;0.60;;;11.90;99.90;;;;;;4410403;32;20073;-69
2023/04/24 02:16:40;;;;;;;0.30;0.30;;;11.80;99.90;;;;;;4409368;32;20077;-69
2023/04/24 02:19:05;;;;;;;0.60;0.60;;;11.90;99.90;;;;;;4409570;32;20081;-69
2023/04/24 02:21:31;;;;;;;0.40;0.40;;;11.90;99.90;;;;;;4408540;32;20089;-69
2023/04/24 02:23:57;;;;;;;0.68;0.68;;;11.80;99.90;;;;;;4409522;32;20102;-69
2023/04/24 02:26:23;;;;;;;0.50;0.50;;;11.80;99.90;;;;;;4409636;32;20069;-69
2023/04/24 02:28:48;;;;;;;0.40;0.40;;;11.80;99.90;;;;;;4409885;32;20069;-70
2023/04/24 02:31:15;;;;;;;0.45;0.45;;;11.80;99.90;;;;;;4397735;32;20097;-71
2023/04/24 02:33:40;;;;;;;0.95;0.75;;;11.70;99.90;;;;;;4401938;32;20089;-69
2023/04/24 02:36:06;;;;;;;1.05;0.77;;;11.70;99.90;;;;;;4393724;32;20521;-71
2023/04/24 02:38:33;;;;;;;1.27;0.60;;;11.70;99.90;;;;;;4396070;32;20074;-69
2023/04/24 02:41:00;;;;;;;0.65;0.65;;;11.60;99.90;;;;;;4399526;32;20622;-69
2023/04/24 02:43:26;;;;;;;0.40;0.40;;;11.60;99.90;;;;;;4398788;32;20157;-69
2023/04/24 02:45:51;;;;;;;1.37;0.62;;;11.60;99.90;;;;;;4401263;32;20102;-70
2023/04/24 02:48:17;;;;;;;0.40;0.40;;;11.50;99.90;;;;;;4399133;32;20380;-69
2023/04/24 02:50:42;;;;;;;0.40;0.40;;;11.60;99.90;;;;;;4396162;32;20085;-71
2023/04/24 02:53:08;;;;;;;0.60;0.60;;;11.50;99.90;;;;;;4401271;32;20548;-70
2023/04/24 02:55:33;;;;;;;0.65;0.65;;;11.60;99.90;;;;;;4400696;32;20094;-70
2023/04/24 02:57:58;;;;;;;23.48;1.00;;;11.60;99.90;;;;;;4397113;32;20428;-69
2023/04/24 03:00:25;;;;;;;0.50;0.50;;;11.60;99.90;;;;;;4398005;32;20069;-71
2023/04/24 03:02:50;;;;;;;0.55;0.55;;;11.70;99.90;;;;;;4398440;32;20085;-69
2023/04/24 03:05:16;;;;;;;0.30;0.30;;;11.70;99.90;;;;;;4398818;32;20106;-69
2023/04/24 03:07:41;;;;;;;0.50;0.50;;;11.80;99.90;;;;;;4400253;32;20127;-70
2023/04/24 03:10:07;;;;;;;1.27;0.35;;;11.80;99.90;;;;;;4394413;32;20570;-69
2023/04/24 03:12:33;;;;;;;1.50;0.75;;;11.80;99.90;;;;;;4396893;32;20070;-69
2023/04/24 03:15:00;;;;;;;1.00;0.70;;;11.80;99.90;;;;;;4400076;32;20128;-69
2023/04/24 03:17:25;;;;;;;0.40;0.40;;;12.00;99.90;;;;;;4395524;32;20687;-70
2023/04/24 03:19:52;;;;;;;0.85;0.70;;;12.10;99.90;;;;;;4396228;32;20078;-69
2023/04/24 03:22:18;;;;;;;0.77;0.68;;;12.20;99.90;;;;;;4399181;32;20105;-69
2023/04/24 03:24:44;;;;;;;0.50;0.50;;;12.30;99.90;;;;;;4398727;32;20566;-69
2023/04/24 03:27:09;;;;;;;0.50;0.50;;;12.30;99.90;;;;;;4402666;32;20098;-69
2023/04/24 03:29:35;;;;;;;2.58;1.33;;;12.40;99.90;;;;;;4409219;32;20065;-70
2023/04/24 03:32:00;;;;;;;2.75;1.50;;;12.30;99.90;;;;;;4410378;32;20465;-70
2023/04/24 03:34:26;;;;;;;1.02;0.93;;;12.40;99.90;;;;;;4410590;32;20090;-69
2023/04/24 03:36:52;;;;;;;0.52;0.52;;;12.40;99.90;;;;;;4409454;32;20065;-69
2023/04/24 03:39:18;;;;;;;0.30;0.30;;;12.40;99.90;;;;;;4409836;32;20128;-71
2023/04/24 03:41:43;;;;;;;12.37;1.77;;;12.50;99.90;;;;;;4410487;32;20217;-69
2023/04/24 03:44:09;;;;;;;0.45;0.45;;;12.40;99.90;;;;;;4411354;32;20069;-69
2023/04/24 03:46:35;;;;;;;0.47;0.47;;;12.40;99.90;;;;;;4411844;32;20128;-69
2023/04/24 03:49:01;;;;;;;0.40;0.40;;;12.40;99.90;;;;;;4409217;32;20078;-69
2023/04/24 03:51:27;;;;;;;0.40;0.40;;;12.50;99.90;;;;;;4413035;32;20077;-70
2023/04/24 03:53:53;;;;;;;3.90;0.98;;;12.50;99.90;;;;;;4410491;32;20078;-70
2023/04/24 03:56:19;;;;;;;0.30;0.30;;;12.50;99.90;;;;;;4409597;32;20086;-71
2023/04/24 03:58:45;;;;;;;2.60;1.08;;;12.50;99.90;;;;;;4410035;32;20095;-69
2023/04/24 04:01:11;;;;;;;0.40;0.40;;;12.60;99.90;;;;;;4410726;32;20066;-70
2023/04/24 04:03:36;;;;;;;0.68;0.37;;;12.60;99.90;;;;;;4411141;32;20093;-70
2023/04/24 04:06:02;;;;;;;0.55;0.55;;;12.60;99.90;;;;;;4409755;32;20086;-71
2023/04/24 04:08:28;;;;;;;1.12;1.00;;;12.50;99.90;;;;;;4411046;32;20133;-69
2023/04/24 04:10:53;;;;;;;0.90;0.90;;;12.50;99.90;;;;;;4412301;32;20121;-69
2023/04/24 04:13:18;;;;;;;0.40;0.40;;;12.50;99.90;;;;;;4409996;32;20089;-69
2023/04/24 04:15:44;;;;;;;0.32;0.32;;;12.60;99.90;;;;;;4410218;32;20078;-73
2023/04/24 04:18:09;;;;;;;0.52;0.52;;;12.60;99.90;;;;;;4411473;32;20065;-70
2023/04/24 04:20:35;;;;;;;0.40;0.40;;;12.60;99.90;;;;;;4409327;32;20565;-69
2023/04/24 04:23:00;;;;;;;0.40;0.40;;;12.50;99.90;;;;;;4403530;32;20070;-71
2023/04/24 04:25:26;;;;;;;11.73;1.05;;;12.50;99.90;;;;;;4410669;32;20089;-70
2023/04/24 04:27:52;;;;;;;0.50;0.50;;;12.60;99.90;;;;;;4410366;32;20439;-70
2023/04/24 04:30:17;;;;;;;0.35;0.35;;;12.60;99.90;;;;;;4409325;32;20102;-69
2023/04/24 04:32:43;;;;;;;0.47;0.47;;;12.60;99.90;;;;;;4411864;32;20078;-70
2023/04/24 04:35:09;;;;;;;2.53;1.20;;;12.60;99.90;;;;;;4410760;32;20119;-70
2023/04/24 04:37:35;;;;;;;0.52;0.52;;;12.60;99.90;;;;;;4408795;32;20078;-70
2023/04/24 04:40:05;;;;;;;0.43;0.43;;;12.70;99.90;;;;;;4410014;32;20074;-71
2023/04/24 04:42:32;;;;;;;0.40;0.40;;;12.70;99.90;;;;;;4410083;32;20086;-70
2023/04/24 04:44:57;;;;;;;0.37;0.37;;;12.60;99.90;;;;;;4409990;32;20078;-70
2023/04/24 04:47:23;;;;;;;0.47;0.47;;;12.60;99.90;;;;;;4408314;32;20494;-73
2023/04/24 04:49:49;;;;;;;0.30;0.30;;;12.60;99.90;;;;;;4408288;32;20062;-71
2023/04/24 04:52:16;;;;;;;1.48;0.85;;;12.60;99.90;;;;;;4407412;32;20077;-70
2023/04/24 04:54:42;;;;;;;0.55;0.55;;;12.60;99.90;;;;;;4407688;32;20556;-70
2023/04/24 04:57:07;;;;;;;0.37;0.37;;;12.70;99.90;;;;;;4409984;32;20121;-68
2023/04/24 04:59:33;;;;;;;1.23;1.05;;;12.70;99.90;;;;;;4407975;32;21973;-69
2023/04/24 05:01:58;;;;;;;0.40;0.40;;;12.50;99.90;;;;;;4403976;32;20151;-71
2023/04/24 05:04:24;;;;;;;0.40;0.40;;;12.60;99.90;;;;;;4405467;32;20070;-71
2023/04/24 05:06:51;;;;;;;2.20;0.77;;;12.60;99.90;;;;;;4407301;32;20101;-70
2023/04/24 05:09:16;;;;;;;0.60;0.60;;;12.70;99.90;;;;;;4408762;32;20489;-70
2023/04/24 05:11:42;;;;;;;0.30;0.30;;;12.70;99.90;;;;;;4407538;32;20069;-71
2023/04/24 05:14:07;;;;;;;0.40;0.40;;;12.70;99.90;;;;;;4406627;32;20505;-71
2023/04/24 05:16:33;;;;;;;0.55;0.55;;;12.70;99.90;;;;;;4404731;32;20446;-73
2023/04/24 05:18:58;;;;;;;0.40;0.40;;;12.70;99.90;;;;;;4396173;32;20176;-69
2023/04/24 05:21:24;;;;;;;0.50;0.50;;;12.70;99.90;;;;;;4401675;32;20773;-71
2023/04/24 05:23:49;;;;;;;0.37;0.37;;;12.70;99.90;;;;;;4398761;32;20069;-72
2023/04/24 05:26:17;;;;;;;0.40;0.40;;;12.80;99.90;;;;;;4396358;32;20136;-72
2023/04/24 05:28:43;;;;;;;0.60;0.60;;;12.80;99.90;;;;;;4399544;32;20100;-70
2023/04/24 05:31:08;;;;;;;0.43;0.43;;;12.90;99.90;;;;;;4387305;32;20657;-73
2023/04/24 05:33:34;;;;;;;0.60;0.60;;;12.90;99.90;;;;;;4394395;32;20675;-69
2023/04/24 05:36:01;;;;;;;0.50;0.50;;;12.80;99.90;;;;;;4402001;32;20098;-71
2023/04/24 05:38:26;;;;;;;0.45;0.45;;;12.90;99.90;;;;;;4398280;32;20076;-69
2023/04/24 05:40:53;;;;;;;0.40;0.40;;;12.80;99.90;;;;;;4403870;32;20070;-70
2023/04/24 05:43:19;;;;;;;0.50;0.50;;;12.90;99.90;;;;;;4398355;32;20169;-72
2023/04/24 05:45:45;;;;;;;0.52;0.52;;;12.90;99.90;;;;;;4400247;32;20126;-69
2023/04/24 05:48:11;;;;;;;0.40;0.40;;;13.00;99.90;;;;;;4399020;32;21744;-70
2023/04/24 05:50:36;;;;;;;0.50;0.50;;;12.90;99.90;;;;;;4403046;32;20093;-72
2023/04/24 05:53:02;;;;;;;0.43;0.32;;;13.00;99.90;;;;;;4397725;32;20140;-69
2023/04/24 05:55:27;;;;;;;0.30;0.30;;;13.00;99.90;;;;;;4393137;32;20094;-71
2023/04/24 05:57:53;;;;;;;0.50;0.50;;;13.00;99.90;;;;;;4389659;32;20180;-72
2023/04/24 06:00:19;;;;;;;0.30;0.30;;;13.10;99.90;;;;;;4384907;32;20265;-72
2023/04/24 06:02:46;;;;;;;0.40;0.40;;;13.00;99.90;;;;;;4382035;32;20240;-72
2023/04/24 06:05:11;;;;;;;0.20;0.20;;;13.00;99.90;;;;;;4363346;32;20101;-70
2023/04/24 06:07:37;;;;;;;0.20;0.20;;;13.10;99.90;;;;;;4373197;32;20955;-71
2023/04/24 06:10:03;;;;;;;0.40;0.40;;;13.10;99.90;;;;;;4374133;32;20092;-70
2023/04/24 06:12:28;;;;;;;0.40;0.40;;;13.20;99.90;;;;;;4377460;32;20097;-70
2023/04/24 06:14:55;;;;;;;0.30;0.30;;;13.20;99.90;;;;;;4382260;32;20097;-69
2023/04/24 06:17:21;;;;;;;0.40;0.40;;;13.10;99.90;;;;;;4377551;32;20101;-69
2023/04/24 06:19:47;;;;;;;0.52;0.52;;;13.10;99.90;;;;;;4378716;32;20126;-70
2023/04/24 06:22:13;;;;;;;0.40;0.40;;;13.20;99.90;;;;;;4377397;32;20181;-69
2023/04/24 06:24:39;;;;;;;2.47;1.20;;;13.30;99.90;;;;;;4371199;32;20110;-72
2023/04/24 06:27:05;;;;;;;0.43;0.43;;;13.30;99.90;;;;;;4374382;32;20093;-72
2023/04/24 06:29:31;;;;;;;0.30;0.30;;;13.40;99.90;;;;;;4380302;32;20086;-72
2023/04/24 06:31:56;;;;;;;0.30;0.30;;;13.50;99.90;;;;;;4378014;32;20093;-70
2023/04/24 06:34:22;;;;;;;0.50;0.50;;;13.60;99.90;;;;;;4368031;32;20889;-71
2023/04/24 06:36:47;;;;;;;0.35;0.35;;;13.70;99.90;;;;;;4379468;32;20093;-72
2023/04/24 06:39:13;;;;;;;0.30;0.30;;;13.80;99.90;;;;;;4380690;32;20429;-72
2023/04/24 06:41:39;;;;;;;0.62;0.62;;;13.90;99.90;;;;;;4373161;32;20089;-73
2023/04/24 06:44:05;;;;;;;1.40;1.02;;;14.10;99.90;;;;;;4379823;32;20098;-69
2023/04/24 06:46:31;;;;;;;0.50;0.50;;;14.20;99.90;;;;;;4375998;32;20303;-73
2023/04/24 06:48:57;;;;;;;0.35;0.35;;;14.20;99.90;;;;;;4383054;32;20098;-71
2023/04/24 06:51:25;;;;;;;0.30;0.30;;;14.10;99.90;;;;;;4379255;32;20097;-73
2023/04/24 06:53:53;;;;;;;0.30;0.30;;;14.10;99.90;;;;;;4370966;32;20335;-74
2023/04/24 06:56:18;;;;;;;0.30;0.30;;;14.10;99.90;;;;;;4374646;32;20607;-73
2023/04/24 06:58:45;;;;;;;0.50;0.50;;;14.10;99.90;;;;;;4372420;32;20093;-69
2023/04/24 07:01:10;;;;;;;0.30;0.30;;;14.20;99.90;;;;;;4383964;32;20630;-72
2023/04/24 07:03:36;;;;;;;0.50;0.50;;;14.20;99.90;;;;;;4377229;32;20117;-69
2023/04/24 07:06:03;;;;;;;0.45;0.40;;;14.30;99.90;;;;;;4369321;32;20102;-72
2023/04/24 07:08:30;;;;;;;0.30;0.30;;;14.30;99.90;;;;;;4369141;32;20090;-73
2023/04/24 07:10:56;;;;;;;0.30;0.30;;;14.50;99.90;;;;;;4366400;32;20167;-70
2023/04/24 07:13:22;;;;;;;0.40;0.40;;;14.60;99.90;;;;;;4371405;32;20093;-72
2023/04/24 07:15:50;;;;;;;0.30;0.30;;;14.70;99.90;;;;;;4371744;32;20101;-70
2023/04/24 07:18:16;;;;;;;0.30;0.30;;;14.70;99.90;;;;;;4372637;32;20867;-70
2023/04/24 07:20:42;;;;;;;0.20;0.20;;;14.70;99.90;;;;;;4367501;32;20128;-71
2023/04/24 07:23:07;;;;;;;0.30;0.30;;;14.80;99.90;;;;;;4366782;32;20658;-69
2023/04/24 07:25:33;;;;;;;0.30;0.30;;;14.70;99.90;;;;;;4376869;32;20159;-70
2023/04/24 07:27:59;;;;;;;0.30;0.30;;;14.80;99.90;;;;;;4379783;32;20467;-69
2023/04/24 07:30:25;;;;;;;0.30;0.30;;;14.70;99.90;;;;;;4363586;32;20120;-72
2023/04/24 07:32:51;;;;;;;0.40;0.40;;;14.80;99.90;;;;;;4365617;32;20161;-73
2023/04/24 07:35:17;;;;;;;0.37;0.37;;;15.00;99.90;;;;;;4372702;32;20102;-73
2023/04/24 07:37:45;;;;;;;0.20;0.20;;;15.20;99.90;;;;;;4377991;32;20105;-73
2023/04/24 07:40:13;;;;;;;0.40;0.40;;;15.30;99.90;;;;;;4380713;32;20110;-74
2023/04/24 07:42:39;;;;;;;0.30;0.30;;;15.50;99.90;;;;;;4376084;32;20114;-71
2023/04/24 07:45:05;;;;;;;1.85;1.00;;;15.60;99.90;;;;;;4377852;32;20144;-74
2023/04/24 07:47:31;;;;;;;0.30;0.30;;;15.40;99.90;;;;;;4377000;32;20604;-70
2023/04/24 07:49:57;;;;;;;0.50;0.50;;;15.50;99.90;;;;;;4364651;32;20805;-72
2023/04/24 07:52:23;;;;;;;0.30;0.30;;;15.50;99.90;;;;;;4365402;32;20157;-76
2023/04/24 07:54:49;;;;;;;0.30;0.30;;;15.60;99.90;;;;;;4355953;32;20437;-75
2023/04/24 07:57:15;;;;;;;0.30;0.30;;;15.70;99.90;;;;;;4359304;32;20580;-74
2023/04/24 07:59:41;;;;;;;0.30;0.30;;;15.80;99.90;;;;;;4338799;32;20136;-73
2023/04/24 08:02:06;;;;;;;0.37;0.37;;;15.80;99.90;;;;;;4353063;32;20135;-73
2023/04/24 08:04:32;;;;;;;0.30;0.30;;;16.00;99.90;;;;;;4372580;32;20243;-75
2023/04/24 08:06:58;;;;;;;0.30;0.30;;;16.00;99.90;;;;;;4380212;32;20143;-74
2023/04/24 08:09:23;;;;;;;0.40;0.40;;;16.30;99.90;;;;;;4380318;32;20078;-73
2023/04/24 08:11:49;;;;;;;0.40;0.40;;;16.10;99.90;;;;;;4386942;32;20109;-75
2023/04/24 08:14:16;;;;;;;0.30;0.30;;;16.30;99.90;;;;;;4388213;32;20120;-73
2023/04/24 08:16:41;;;;;;;0.40;0.40;;;16.30;99.90;;;;;;4389627;32;20112;-73
2023/04/24 08:19:07;;;;;;;0.30;0.30;;;16.20;99.90;;;;;;4379377;32;20058;-78
2023/04/24 08:21:33;;;;;;;0.30;0.30;;;16.20;99.90;;;;;;4378312;32;20135;-74
2023/04/24 08:24:04;;;;;;;0.40;0.40;;;16.20;99.90;;;;;;4378925;32;20750;-74
2023/04/24 08:26:30;;;;;;;0.30;0.30;;;16.10;99.90;;;;;;4377656;32;20089;-75
2023/04/24 08:28:56;;;;;;;0.50;0.50;;;16.10;99.90;;;;;;4372486;32;20172;-75
2023/04/24 08:31:24;;;;;;;0.30;0.30;;;16.10;99.90;;;;;;4383253;32;20078;-73
2023/04/24 08:33:50;;;;;;;0.47;0.47;;;16.30;99.90;;;;;;4365883;32;20089;-76
2023/04/24 08:36:15;;;;;;;0.30;0.30;;;16.40;99.90;;;;;;4361795;32;20122;-73
2023/04/24 08:38:42;;;;;;;0.30;0.30;;;16.40;99.90;;;;;;4371923;32;20736;-76
2023/04/24 08:41:09;;;;;;;0.30;0.30;;;16.40;99.90;;;;;;4356566;32;20097;-75
2023/04/24 08:43:36;;;;;;;0.40;0.40;;;16.40;99.90;;;;;;4382523;32;20082;-72
2023/04/24 08:46:04;;;;;;;0.30;0.30;;;16.50;99.90;;;;;;4380526;32;20463;-72
2023/04/24 08:48:30;;;;;;;0.30;0.30;;;16.60;99.90;;;;;;4375839;32;20148;-76
2023/04/24 08:50:56;;;;;;;0.40;0.40;;;16.80;99.90;;;;;;4378576;32;20244;-76
2023/04/24 08:53:24;;;;;;;0.30;0.30;;;16.90;99.90;;;;;;4380427;32;20529;-74
2023/04/24 08:55:51;;;;;;;0.37;0.37;;;16.80;99.90;;;;;;4381284;32;20164;-75
2023/04/24 08:58:17;;;;;;;0.40;0.40;;;16.50;99.90;;;;;;4389183;32;20890;-74
2023/04/24 09:00:46;;;;;;;0.37;0.37;;;16.40;99.90;;;;;;4382158;32;20090;-76
2023/04/24 09:03:15;;;;;;;;;;;16.50;99.90;;;;;;4380696;32;20165;-78
2023/04/24 09:05:45;;;;;;;0.40;0.40;;;16.60;99.90;;;;;;4386663;32;19970;-76
2023/04/24 09:08:13;;;;;;;0.50;0.50;;;16.50;99.90;;;;;;4366563;32;21426;-78
2023/04/24 09:10:41;;;;;;;0.40;0.40;;;16.60;99.90;;;;;;4378740;32;20196;-79
2023/04/24 09:13:08;;;;;;;0.40;0.40;;;16.60;99.90;;;;;;4379431;32;20619;-76
2023/04/24 09:15:35;;;;;;;0.30;0.30;;;16.60;99.90;;;;;;4376298;32;20137;-77
2023/04/24 09:18:01;;;;;;;0.30;0.30;;;16.40;99.90;;;;;;4370376;32;20108;-77
2023/04/24 09:20:27;;;;;;;0.35;0.35;;;16.30;99.90;;;;;;4374972;32;20097;-77
2023/04/24 09:22:55;;;;;;;0.40;0.40;;;16.30;99.90;;;;;;4371485;32;20485;-76
2023/04/24 09:25:21;;;;;;;0.40;0.40;;;16.50;99.90;;;;;;4379220;32;20121;-77
2023/04/24 09:27:46;;;;;;;0.30;0.30;;;16.50;99.90;;;;;;4373646;32;20192;-76
2023/04/24 09:30:13;;;;;;;0.30;0.30;;;16.50;99.90;;;;;;4370287;32;20101;-74
2023/04/24 09:32:38;;;;;;;0.40;0.40;;;16.60;99.90;;;;;;4368015;32;20085;-74
2023/04/24 09:35:13;;;;;;;0.30;0.30;;;16.70;99.90;;;;;;4371182;32;20093;-75
2023/04/24 09:37:41;;;;;;;0.30;0.30;;;16.60;99.90;;;;;;4373993;32;20106;-75
2023/04/24 09:40:23;;;;;;;0.37;0.37;;;16.60;99.90;;;;;;4367507;32;20117;-74
2023/04/24 09:42:53;;;;;;;0.40;0.40;;;16.60;99.90;;;;;;4379277;32;20101;-74
2023/04/24 09:45:20;;;;;;;0.32;0.32;;;16.70;99.90;;;;;;4376023;32;20158;-73
2023/04/24 09:47:46;;;;;;;0.85;0.85;;;16.80;99.90;;;;;;4375985;32;20627;-73
2023/04/24 09:50:14;;;;;;;0.40;0.40;;;16.70;99.90;;;;;;4370439;32;20166;-74
2023/04/24 09:52:41;;;;;;;0.40;0.40;;;16.70;99.90;;;;;;4378820;32;20299;-74
2023/04/24 09:55:25;;;;;;;0.40;0.40;;;16.70;99.90;;;;;;4374616;32;20272;-74
2023/04/24 09:57:54;;;;;;;0.40;0.40;;;16.80;99.90;;;;;;4356333;32;20124;-74
2023/04/24 10:00:23;;;;;;;0.30;0.30;;;16.90;99.90;;;;;;4363595;32;20073;-74
2023/04/24 10:02:51;;;;;;;0.30;0.30;;;16.90;99.90;;;;;;4380894;32;20081;-74
2023/04/24 10:05:17;;;;;;;0.40;0.40;;;17.20;99.90;;;;;;4375633;32;20081;-74
2023/04/24 10:07:43;;;;;;;0.30;0.30;;;17.60;99.90;;;;;;4372815;32;20656;-74
2023/04/24 10:10:09;;;;;;;0.35;0.35;;;17.90;99.90;;;;;;4373825;32;20761;-74
2023/04/24 10:12:35;;;;;;;0.32;0.32;;;17.90;99.90;;;;;;4371880;32;20105;-74
2023/04/24 10:15:02;;;;;;;0.30;0.30;;;17.80;99.90;;;;;;4376408;32;20086;-73
2023/04/24 10:17:29;;;;;;;0.30;0.30;;;18.00;99.90;;;;;;4368628;32;20443;-74
2023/04/24 10:19:55;;;;;;;0.30;0.30;;;18.20;99.90;;;;;;4371992;32;22045;-74
2023/04/24 10:22:22;;;;;;;0.37;0.37;;;17.70;99.90;;;;;;4378646;32;20099;-73
2023/04/24 10:24:49;;;;;;;1.05;0.37;;;17.40;99.90;;;;;;4385425;32;20086;-73
2023/04/24 10:27:16;;;;;;;0.30;0.30;;;17.40;99.90;;;;;;4378195;32;21189;-75
2023/04/24 10:29:43;;;;;;;0.25;0.25;;;17.20;99.90;;;;;;4375992;32;20102;-72
2023/04/24 10:32:09;;;;;;;0.30;0.30;;;17.00;99.90;;;;;;4381082;32;20478;-72
2023/04/24 10:34:36;;;;;;;0.40;0.40;;;16.90;99.90;;;;;;4382461;32;20322;-73
2023/04/24 10:37:02;;;;;;;0.30;0.30;;;16.80;99.90;;;;;;4381142;32;20085;-75
2023/04/24 10:39:28;;;;;;;0.35;0.35;;;16.60;99.90;;;;;;4374035;32;20140;-75
2023/04/24 10:41:57;;;;;;;0.40;0.40;;;16.40;99.90;;;;;;4377641;32;20097;-73
2023/04/24 10:44:23;;;;;;;0.40;0.40;;;16.50;99.90;;;;;;4374624;32;20077;-74
2023/04/24 10:46:54;;;;;;;0.30;0.30;;;16.30;99.90;;;;;;4384565;32;20081;-75
2023/04/24 10:49:29;;;;;;;0.30;0.30;;;16.20;99.90;;;;;;4378633;32;20209;-75
2023/04/24 10:52:01;;;;;;;0.30;0.30;;;16.10;99.90;;;;;;4381569;32;21949;-75
2023/04/24 10:54:29;;;;;;;1.25;0.50;;;16.10;99.90;;;;;;4364556;32;20553;-75
2023/04/24 10:57:22;;;;;;;0.30;0.30;;;16.50;99.90;;;;;;4364676;32;20106;-75
2023/04/24 10:59:51;;;;;;;1.20;0.45;;;17.50;99.90;;;;;;4357688;32;20101;-76
2023/04/24 11:02:17;;;;;;;0.30;0.30;;;17.90;99.90;;;;;;4372653;32;20453;-76
2023/04/24 11:04:44;;;;;;;0.30;0.30;;;18.20;99.90;;;;;;4372937;32;20069;-76
2023/04/24 11:07:10;;;;;;;0.65;0.65;;;18.70;99.90;;;;;;4378656;32;20112;-76
2023/04/24 11:09:40;;;;;;;0.30;0.30;;;19.00;99.90;;;;;;4374696;32;20498;-76
2023/04/24 11:12:10;;;;;;;0.30;0.30;;;19.00;99.90;;;;;;4382914;32;20077;-76
2023/04/24 11:14:57;;;;;;;0.40;0.40;;;19.00;99.90;;;;;;4374133;32;20104;-75
2023/04/24 11:17:33;;;;;;;0.30;0.30;;;18.70;99.90;;;;;;4359018;32;20225;-75
2023/04/24 11:20:07;;;;;;;1.98;0.88;;;18.30;99.90;;;;;;4367644;32;20093;-75
2023/04/24 11:22:35;;;;;;;0.30;0.30;;;18.00;99.90;;;;;;4382867;32;20115;-77
2023/04/24 11:25:02;;;;;;;0.30;0.30;;;17.90;99.90;;;;;;4391816;32;20151;-78
2023/04/24 11:27:31;;;;;;;0.40;0.40;;;18.00;99.90;;;;;;4397256;32;21997;-77
2023/04/24 11:30:00;;;;;;;0.40;0.40;;;18.00;99.90;;;;;;4394957;32;20065;-77
2023/04/24 11:32:43;;;;;;;0.45;0.45;;;18.00;99.90;;;;;;4380081;32;20920;-77
2023/04/24 11:35:24;;;;;;;0.30;0.30;;;18.40;99.90;;;;;;4383714;32;20735;-77
2023/04/24 11:37:52;;;;;;;0.30;0.30;;;19.00;99.90;;;;;;4381410;32;20113;-75
2023/04/24 11:40:22;;;;;;;0.40;0.40;;;18.70;99.90;;;;;;4376875;32;20226;-76
2023/04/24 11:42:51;;;;;;;0.40;0.40;;;18.30;99.90;;;;;;4367305;32;20094;-75
2023/04/24 11:45:23;;;;;;;0.30;0.30;;;17.80;99.90;;;;;;4360399;32;107042;-74
2023/04/24 11:47:49;;;;;;;0.40;0.40;;;17.80;99.90;;;;;;4367698;32;20731;-75
2023/04/24 11:50:17;;;;;;;0.40;0.40;;;17.60;99.90;;;;;;4354682;32;20113;-74
2023/04/24 11:52:45;;;;;;;0.50;0.50;;;17.60;99.90;;;;;;4359348;32;20105;-74
2023/04/24 11:55:16;;;;;;;0.40;0.40;;;17.60;99.90;;;;;;4361647;32;20093;-73
2023/04/24 11:57:44;;;;;;;0.40;0.40;;;17.60;99.90;;;;;;4371392;32;20101;-74
2023/04/24 12:00:20;;;;;;;0.40;0.40;;;17.60;99.90;;;;;;4367367;32;21705;-74
2023/04/24 12:02:46;;;;;;;0.30;0.30;;;17.80;99.90;;;;;;4362527;32;20122;-74
2023/04/24 12:05:21;;;;;;;0.40;0.40;;;18.40;99.90;;;;;;4358242;32;20109;-74
2023/04/24 12:07:46;;;;;;;0.50;0.50;;;18.50;99.90;;;;;;4372375;32;20124;-74
2023/04/24 12:10:12;;;;;;;0.40;0.40;;;19.20;99.90;;;;;;4358072;32;20783;-74
2023/04/24 12:12:38;;;;;;;0.30;0.30;;;20.10;99.90;;;;;;4363141;32;20122;-74
2023/04/24 12:15:08;;;;;;;0.30;0.30;;;20.60;99.90;;;;;;4355934;32;20081;-74
2023/04/24 12:17:36;;;;;;;0.30;0.30;;;20.50;99.90;;;;;;4350778;32;20101;-74
2023/04/24 12:20:05;;;;;;;15.43;2.47;;;20.10;99.90;;;;;;4369346;32;20411;-73
2023/04/24 12:22:47;;;;;;;0.30;0.30;;;19.50;98.20;;;;;;4356207;32;20250;-74
2023/04/24 12:25:14;;;;;;;0.30;0.30;;;19.20;98.80;;;;;;4364096;32;20125;-75
2023/04/24 12:27:40;;;;;;;0.40;0.40;;;19.00;99.20;;;;;;4363637;32;20150;-74
2023/04/24 12:30:12;;;;;;;0.32;0.32;;;18.70;99.20;;;;;;4373899;32;20115;-74
2023/04/24 12:32:43;;;;;;;0.28;0.28;;;19.10;99.30;;;;;;4375179;32;20122;-75
2023/04/24 12:35:09;;;;;;;0.40;0.40;;;19.20;98.80;;;;;;4384753;32;20568;-76
2023/04/24 12:37:36;;;;;;;0.30;0.30;;;19.20;98.20;;;;;;4390432;32;20343;-74
2023/04/24 12:40:06;;;;;;;0.50;0.50;;;19.50;97.00;;;;;;4391819;32;20345;-74
2023/04/24 12:42:32;;;;;;;0.50;0.50;;;20.10;95.80;;;;;;4394515;32;20082;-74
2023/04/24 12:45:00;;;;;;;0.30;0.30;;;21.00;93.30;;;;;;4389713;32;20121;-74